sensor_id;sensor_type;location;lat;lon;timestamp;P1;durP1;ratioP1;P2;durP2;ratioP2
12171;SDS011;6149;52.418;13.668;2023-10-31T00:02:20;8.60;;;5.20;;
12171;SDS011;6149;52.418;13.668;2023-10-31T00:04:47;6.53;;;4.93;;
12171;SDS011;6149;52.418;13.668;2023-10-31T00:07:14;6.33;;;5.13;;
12171;SDS011;6149;52.418;13.668;2023-10-31T00:09:42;6.30;;;4.83;;
12171;SDS011;6149;52.418;13.668;2023-10-31T00:12:10;8.10;;;5.10;;
12171;SDS011;6149;52.418;13.668;2023-10-31T00:14:36;7.53;;;5.40;;
12171;SDS011;6149;52.418;13.668;2023-10-31T00:17:06;6.53;;;5.40;;
12171;SDS011;6149;52.418;13.668;2023-10-31T00:19:38;6.97;;;5.17;;
12171;SDS011;6149;52.418;13.668;2023-10-31T00:22:06;10.03;;;4.80;;
12171;SDS011;6149;52.418;13.668;2023-10-31T00:24:34;5.80;;;4.80;;
12171;SDS011;6149;52.418;13.668;2023-10-31T00:27:01;6.80;;;5.17;;
12171;SDS011;6149;52.418;13.668;2023-10-31T00:29:29;7.93;;;5.17;;
12171;SDS011;6149;52.418;13.668;2023-10-31T00:32:00;7.43;;;5.30;;
12171;SDS011;6149;52.418;13.668;2023-10-31T00:34:32;11.60;;;5.10;;
12171;SDS011;6149;52.418;13.668;2023-10-31T00:37:03;11.37;;;5.03;;
12171;SDS011;6149;52.418;13.668;2023-10-31T00:39:31;9.53;;;5.13;;
12171;SDS011;6149;52.418;13.668;2023-10-31T00:42:00;6.90;;;4.87;;
12171;SDS011;6149;52.418;13.668;2023-10-31T00:44:31;10.10;;;5.27;;
12171;SDS011;6149;52.418;13.668;2023-10-31T00:46:57;5.93;;;5.00;;
12171;SDS011;6149;52.418;13.668;2023-10-31T00:49:28;5.90;;;4.67;;
12171;SDS011;6149;52.418;13.668;2023-10-31T00:51:58;5.73;;;4.80;;
12171;SDS011;6149;52.418;13.668;2023-10-31T00:54:30;7.33;;;5.87;;
12171;SDS011;6149;52.418;13.668;2023-10-31T00:56:58;7.80;;;5.30;;
12171;SDS011;6149;52.418;13.668;2023-10-31T00:59:26;8.03;;;4.83;;
12171;SDS011;6149;52.418;13.668;2023-10-31T01:01:57;7.20;;;4.97;;
12171;SDS011;6149;52.418;13.668;2023-10-31T01:04:27;11.80;;;5.47;;
12171;SDS011;6149;52.418;13.668;2023-10-31T01:06:54;9.53;;;5.17;;
12171;SDS011;6149;52.418;13.668;2023-10-31T01:09:20;6.90;;;5.07;;
12171;SDS011;6149;52.418;13.668;2023-10-31T01:11:51;9.00;;;5.27;;
12171;SDS011;6149;52.418;13.668;2023-10-31T01:14:17;7.80;;;5.30;;
12171;SDS011;6149;52.418;13.668;2023-10-31T01:16:44;11.07;;;5.20;;
12171;SDS011;6149;52.418;13.668;2023-10-31T01:19:10;10.03;;;5.77;;
12171;SDS011;6149;52.418;13.668;2023-10-31T01:21:37;12.00;;;5.83;;
12171;SDS011;6149;52.418;13.668;2023-10-31T01:24:05;9.50;;;5.67;;
12171;SDS011;6149;52.418;13.668;2023-10-31T01:26:32;6.50;;;5.17;;
12171;SDS011;6149;52.418;13.668;2023-10-31T01:29:07;9.13;;;5.80;;
12171;SDS011;6149;52.418;13.668;2023-10-31T01:31:33;9.07;;;5.17;;
12171;SDS011;6149;52.418;13.668;2023-10-31T01:34:03;6.50;;;5.10;;
12171;SDS011;6149;52.418;13.668;2023-10-31T01:36:30;6.37;;;5.40;;
12171;SDS011;6149;52.418;13.668;2023-10-31T01:38:58;7.30;;;5.70;;
12171;SDS011;6149;52.418;13.668;2023-10-31T01:41:27;6.37;;;5.77;;
12171;SDS011;6149;52.418;13.668;2023-10-31T01:43:56;7.93;;;5.70;;
12171;SDS011;6149;52.418;13.668;2023-10-31T01:46:25;8.57;;;5.83;;
12171;SDS011;6149;52.418;13.668;2023-10-31T01:48:51;7.90;;;5.50;;
12171;SDS011;6149;52.418;13.668;2023-10-31T01:51:23;5.43;;;4.80;;
12171;SDS011;6149;52.418;13.668;2023-10-31T01:53:50;7.70;;;5.53;;
12171;SDS011;6149;52.418;13.668;2023-10-31T01:56:17;7.10;;;5.23;;
12171;SDS011;6149;52.418;13.668;2023-10-31T01:58:47;7.60;;;5.37;;
12171;SDS011;6149;52.418;13.668;2023-10-31T02:01:15;7.70;;;5.93;;
12171;SDS011;6149;52.418;13.668;2023-10-31T02:03:44;6.67;;;5.53;;
12171;SDS011;6149;52.418;13.668;2023-10-31T02:06:14;8.20;;;6.40;;
12171;SDS011;6149;52.418;13.668;2023-10-31T02:08:41;5.93;;;5.17;;
12171;SDS011;6149;52.418;13.668;2023-10-31T02:11:10;8.87;;;6.03;;
12171;SDS011;6149;52.418;13.668;2023-10-31T02:13:38;8.53;;;6.43;;
12171;SDS011;6149;52.418;13.668;2023-10-31T02:16:06;6.80;;;5.80;;
12171;SDS011;6149;52.418;13.668;2023-10-31T02:18:34;10.37;;;5.77;;
12171;SDS011;6149;52.418;13.668;2023-10-31T02:21:07;7.13;;;5.80;;
12171;SDS011;6149;52.418;13.668;2023-10-31T02:23:37;8.47;;;5.73;;
12171;SDS011;6149;52.418;13.668;2023-10-31T02:26:03;7.03;;;5.40;;
12171;SDS011;6149;52.418;13.668;2023-10-31T02:28:32;10.17;;;6.17;;
12171;SDS011;6149;52.418;13.668;2023-10-31T02:31:00;9.37;;;6.20;;
12171;SDS011;6149;52.418;13.668;2023-10-31T02:33:28;7.80;;;5.63;;
12171;SDS011;6149;52.418;13.668;2023-10-31T02:35:55;8.80;;;6.33;;
12171;SDS011;6149;52.418;13.668;2023-10-31T02:38:22;9.13;;;6.30;;
12171;SDS011;6149;52.418;13.668;2023-10-31T02:40:51;11.57;;;6.60;;
12171;SDS011;6149;52.418;13.668;2023-10-31T02:43:18;7.70;;;6.80;;
12171;SDS011;6149;52.418;13.668;2023-10-31T02:45:44;7.60;;;6.13;;
12171;SDS011;6149;52.418;13.668;2023-10-31T02:48:13;9.00;;;7.13;;
12171;SDS011;6149;52.418;13.668;2023-10-31T02:50:40;7.47;;;5.80;;
12171;SDS011;6149;52.418;13.668;2023-10-31T02:53:07;8.60;;;6.80;;
12171;SDS011;6149;52.418;13.668;2023-10-31T02:55:34;7.23;;;6.13;;
12171;SDS011;6149;52.418;13.668;2023-10-31T02:58:07;7.67;;;5.43;;
12171;SDS011;6149;52.418;13.668;2023-10-31T03:00:33;5.53;;;4.67;;
12171;SDS011;6149;52.418;13.668;2023-10-31T03:03:01;7.53;;;6.00;;
12171;SDS011;6149;52.418;13.668;2023-10-31T03:05:28;7.87;;;5.80;;
12171;SDS011;6149;52.418;13.668;2023-10-31T03:07:56;7.03;;;5.67;;
12171;SDS011;6149;52.418;13.668;2023-10-31T03:10:26;11.87;;;7.60;;
12171;SDS011;6149;52.418;13.668;2023-10-31T03:12:52;7.87;;;6.50;;
12171;SDS011;6149;52.418;13.668;2023-10-31T03:15:23;9.23;;;6.53;;
12171;SDS011;6149;52.418;13.668;2023-10-31T03:17:50;8.93;;;7.30;;
12171;SDS011;6149;52.418;13.668;2023-10-31T03:20:18;7.73;;;6.73;;
12171;SDS011;6149;52.418;13.668;2023-10-31T03:22:45;11.80;;;7.87;;
12171;SDS011;6149;52.418;13.668;2023-10-31T03:25:13;8.83;;;6.63;;
12171;SDS011;6149;52.418;13.668;2023-10-31T03:27:41;9.40;;;8.40;;
12171;SDS011;6149;52.418;13.668;2023-10-31T03:30:10;10.93;;;8.13;;
12171;SDS011;6149;52.418;13.668;2023-10-31T03:32:41;12.03;;;8.20;;
12171;SDS011;6149;52.418;13.668;2023-10-31T03:35:09;13.30;;;9.90;;
12171;SDS011;6149;52.418;13.668;2023-10-31T03:37:37;13.47;;;9.77;;
12171;SDS011;6149;52.418;13.668;2023-10-31T03:40:07;12.37;;;9.07;;
12171;SDS011;6149;52.418;13.668;2023-10-31T03:42:37;13.20;;;9.77;;
12171;SDS011;6149;52.418;13.668;2023-10-31T03:45:05;10.80;;;9.47;;
12171;SDS011;6149;52.418;13.668;2023-10-31T03:47:34;12.57;;;9.27;;
12171;SDS011;6149;52.418;13.668;2023-10-31T03:50:05;12.87;;;10.80;;
12171;SDS011;6149;52.418;13.668;2023-10-31T03:52:34;14.00;;;10.33;;
12171;SDS011;6149;52.418;13.668;2023-10-31T03:55:01;13.80;;;10.73;;
12171;SDS011;6149;52.418;13.668;2023-10-31T03:57:30;11.23;;;9.77;;
12171;SDS011;6149;52.418;13.668;2023-10-31T04:00:00;14.37;;;11.40;;
12171;SDS011;6149;52.418;13.668;2023-10-31T04:02:29;11.37;;;9.90;;
12171;SDS011;6149;52.418;13.668;2023-10-31T04:04:56;11.57;;;9.87;;
12171;SDS011;6149;52.418;13.668;2023-10-31T04:07:27;14.00;;;11.60;;
12171;SDS011;6149;52.418;13.668;2023-10-31T04:09:55;15.00;;;11.60;;
12171;SDS011;6149;52.418;13.668;2023-10-31T04:12:21;14.20;;;11.73;;
12171;SDS011;6149;52.418;13.668;2023-10-31T04:14:49;11.73;;;10.47;;
12171;SDS011;6149;52.418;13.668;2023-10-31T04:17:16;13.67;;;11.27;;
12171;SDS011;6149;52.418;13.668;2023-10-31T04:19:44;12.07;;;10.60;;
12171;SDS011;6149;52.418;13.668;2023-10-31T04:22:10;14.03;;;12.00;;
12171;SDS011;6149;52.418;13.668;2023-10-31T04:24:40;13.37;;;11.63;;
12171;SDS011;6149;52.418;13.668;2023-10-31T04:27:08;15.37;;;11.70;;
12171;SDS011;6149;52.418;13.668;2023-10-31T04:29:35;14.57;;;12.27;;
12171;SDS011;6149;52.418;13.668;2023-10-31T04:32:03;14.37;;;12.07;;
12171;SDS011;6149;52.418;13.668;2023-10-31T04:34:31;14.57;;;12.17;;
12171;SDS011;6149;52.418;13.668;2023-10-31T04:36:58;17.30;;;13.07;;
12171;SDS011;6149;52.418;13.668;2023-10-31T04:39:27;15.33;;;12.20;;
12171;SDS011;6149;52.418;13.668;2023-10-31T04:42:03;14.00;;;12.60;;
12171;SDS011;6149;52.418;13.668;2023-10-31T04:44:30;17.57;;;12.87;;
12171;SDS011;6149;52.418;13.668;2023-10-31T04:46:58;14.27;;;12.37;;
12171;SDS011;6149;52.418;13.668;2023-10-31T04:49:28;13.23;;;11.70;;
12171;SDS011;6149;52.418;13.668;2023-10-31T04:51:57;18.17;;;13.63;;
12171;SDS011;6149;52.418;13.668;2023-10-31T04:54:23;16.53;;;13.27;;
12171;SDS011;6149;52.418;13.668;2023-10-31T04:56:51;16.47;;;13.17;;
12171;SDS011;6149;52.418;13.668;2023-10-31T04:59:26;17.00;;;13.67;;
12171;SDS011;6149;52.418;13.668;2023-10-31T05:01:53;15.80;;;13.23;;
12171;SDS011;6149;52.418;13.668;2023-10-31T05:04:20;16.97;;;13.33;;
12171;SDS011;6149;52.418;13.668;2023-10-31T05:06:46;20.20;;;13.27;;
12171;SDS011;6149;52.418;13.668;2023-10-31T05:09:14;16.90;;;14.27;;
12171;SDS011;6149;52.418;13.668;2023-10-31T05:11:43;19.17;;;14.67;;
12171;SDS011;6149;52.418;13.668;2023-10-31T05:14:10;18.40;;;14.23;;
12171;SDS011;6149;52.418;13.668;2023-10-31T05:16:42;18.00;;;14.87;;
12171;SDS011;6149;52.418;13.668;2023-10-31T05:19:10;16.53;;;14.30;;
12171;SDS011;6149;52.418;13.668;2023-10-31T05:21:38;18.77;;;14.57;;
12171;SDS011;6149;52.418;13.668;2023-10-31T05:24:07;21.53;;;15.87;;
12171;SDS011;6149;52.418;13.668;2023-10-31T05:26:35;19.40;;;15.53;;
12171;SDS011;6149;52.418;13.668;2023-10-31T05:29:03;18.93;;;15.13;;
12171;SDS011;6149;52.418;13.668;2023-10-31T05:31:31;18.00;;;15.33;;
12171;SDS011;6149;52.418;13.668;2023-10-31T05:34:02;22.13;;;15.20;;
12171;SDS011;6149;52.418;13.668;2023-10-31T05:36:33;19.37;;;15.33;;
12171;SDS011;6149;52.418;13.668;2023-10-31T05:39:01;23.17;;;15.23;;
12171;SDS011;6149;52.418;13.668;2023-10-31T05:41:33;18.03;;;14.17;;
12171;SDS011;6149;52.418;13.668;2023-10-31T05:44:02;17.57;;;14.37;;
12171;SDS011;6149;52.418;13.668;2023-10-31T05:46:31;21.53;;;14.83;;
12171;SDS011;6149;52.418;13.668;2023-10-31T05:49:00;17.17;;;13.07;;
12171;SDS011;6149;52.418;13.668;2023-10-31T05:51:28;16.80;;;13.80;;
12171;SDS011;6149;52.418;13.668;2023-10-31T05:53:56;13.27;;;11.67;;
12171;SDS011;6149;52.418;13.668;2023-10-31T05:56:24;18.23;;;13.60;;
12171;SDS011;6149;52.418;13.668;2023-10-31T05:58:50;15.07;;;12.40;;
12171;SDS011;6149;52.418;13.668;2023-10-31T06:01:22;16.57;;;12.67;;
12171;SDS011;6149;52.418;13.668;2023-10-31T06:03:50;16.27;;;12.33;;
12171;SDS011;6149;52.418;13.668;2023-10-31T06:06:18;13.57;;;10.60;;
12171;SDS011;6149;52.418;13.668;2023-10-31T06:08:51;11.80;;;10.57;;
12171;SDS011;6149;52.418;13.668;2023-10-31T06:11:21;10.50;;;9.00;;
12171;SDS011;6149;52.418;13.668;2023-10-31T06:13:47;12.33;;;9.83;;
12171;SDS011;6149;52.418;13.668;2023-10-31T06:16:14;13.67;;;10.13;;
12171;SDS011;6149;52.418;13.668;2023-10-31T06:18:44;10.63;;;9.53;;
12171;SDS011;6149;52.418;13.668;2023-10-31T06:21:11;11.33;;;10.13;;
12171;SDS011;6149;52.418;13.668;2023-10-31T06:23:39;11.50;;;10.17;;
12171;SDS011;6149;52.418;13.668;2023-10-31T06:26:09;10.77;;;9.63;;
12171;SDS011;6149;52.418;13.668;2023-10-31T06:28:37;11.80;;;10.17;;
12171;SDS011;6149;52.418;13.668;2023-10-31T06:31:06;11.57;;;10.43;;
12171;SDS011;6149;52.418;13.668;2023-10-31T06:33:35;11.17;;;9.97;;
12171;SDS011;6149;52.418;13.668;2023-10-31T06:36:02;11.97;;;9.60;;
12171;SDS011;6149;52.418;13.668;2023-10-31T06:38:33;11.50;;;10.30;;
12171;SDS011;6149;52.418;13.668;2023-10-31T06:41:09;12.50;;;10.57;;
12171;SDS011;6149;52.418;13.668;2023-10-31T06:43:37;11.40;;;10.20;;
12171;SDS011;6149;52.418;13.668;2023-10-31T06:46:04;18.07;;;10.43;;
12171;SDS011;6149;52.418;13.668;2023-10-31T06:48:33;13.73;;;9.93;;
12171;SDS011;6149;52.418;13.668;2023-10-31T06:51:01;12.17;;;10.13;;
12171;SDS011;6149;52.418;13.668;2023-10-31T06:53:28;13.37;;;10.20;;
12171;SDS011;6149;52.418;13.668;2023-10-31T06:55:57;10.27;;;8.90;;
12171;SDS011;6149;52.418;13.668;2023-10-31T06:58:38;10.87;;;9.07;;
12171;SDS011;6149;52.418;13.668;2023-10-31T07:01:07;10.87;;;8.93;;
12171;SDS011;6149;52.418;13.668;2023-10-31T07:03:37;9.60;;;8.63;;
12171;SDS011;6149;52.418;13.668;2023-10-31T07:06:05;9.10;;;7.47;;
12171;SDS011;6149;52.418;13.668;2023-10-31T07:08:33;9.43;;;8.20;;
12171;SDS011;6149;52.418;13.668;2023-10-31T07:11:01;9.53;;;8.47;;
12171;SDS011;6149;52.418;13.668;2023-10-31T07:13:33;8.20;;;7.37;;
12171;SDS011;6149;52.418;13.668;2023-10-31T07:16:04;7.97;;;6.90;;
12171;SDS011;6149;52.418;13.668;2023-10-31T07:18:33;7.93;;;7.03;;
12171;SDS011;6149;52.418;13.668;2023-10-31T07:21:01;7.50;;;6.57;;
12171;SDS011;6149;52.418;13.668;2023-10-31T07:23:30;9.83;;;6.67;;
12171;SDS011;6149;52.418;13.668;2023-10-31T07:25:58;8.77;;;7.60;;
12171;SDS011;6149;52.418;13.668;2023-10-31T07:28:28;7.53;;;6.70;;
12171;SDS011;6149;52.418;13.668;2023-10-31T07:30:59;9.00;;;6.63;;
12171;SDS011;6149;52.418;13.668;2023-10-31T07:33:35;7.47;;;6.27;;
12171;SDS011;6149;52.418;13.668;2023-10-31T07:36:03;6.70;;;5.53;;
12171;SDS011;6149;52.418;13.668;2023-10-31T07:38:34;11.17;;;6.37;;
12171;SDS011;6149;52.418;13.668;2023-10-31T07:41:04;8.07;;;6.40;;
12171;SDS011;6149;52.418;13.668;2023-10-31T07:43:32;7.80;;;6.27;;
12171;SDS011;6149;52.418;13.668;2023-10-31T07:46:03;7.53;;;6.77;;
12171;SDS011;6149;52.418;13.668;2023-10-31T07:48:31;6.60;;;5.87;;
12171;SDS011;6149;52.418;13.668;2023-10-31T07:51:03;6.60;;;5.90;;
12171;SDS011;6149;52.418;13.668;2023-10-31T07:53:32;7.87;;;5.93;;
12171;SDS011;6149;52.418;13.668;2023-10-31T07:56:00;8.30;;;6.07;;
12171;SDS011;6149;52.418;13.668;2023-10-31T07:58:29;6.13;;;5.23;;
12171;SDS011;6149;52.418;13.668;2023-10-31T08:00:56;4.90;;;4.40;;
12171;SDS011;6149;52.418;13.668;2023-10-31T08:03:24;4.20;;;3.30;;
12171;SDS011;6149;52.418;13.668;2023-10-31T08:05:50;5.40;;;3.23;;
12171;SDS011;6149;52.418;13.668;2023-10-31T08:08:17;3.60;;;3.00;;
12171;SDS011;6149;52.418;13.668;2023-10-31T08:10:45;3.53;;;3.10;;
12171;SDS011;6149;52.418;13.668;2023-10-31T08:13:12;3.40;;;2.87;;
12171;SDS011;6149;52.418;13.668;2023-10-31T08:15:40;3.77;;;3.17;;
12171;SDS011;6149;52.418;13.668;2023-10-31T08:18:07;3.20;;;3.00;;
12171;SDS011;6149;52.418;13.668;2023-10-31T08:20:37;2.93;;;2.63;;
12171;SDS011;6149;52.418;13.668;2023-10-31T08:23:03;6.17;;;3.13;;
12171;SDS011;6149;52.418;13.668;2023-10-31T08:25:31;3.30;;;3.00;;
12171;SDS011;6149;52.418;13.668;2023-10-31T08:27:59;3.67;;;2.60;;
12171;SDS011;6149;52.418;13.668;2023-10-31T08:30:28;2.60;;;2.40;;
12171;SDS011;6149;52.418;13.668;2023-10-31T08:32:59;2.57;;;2.13;;
12171;SDS011;6149;52.418;13.668;2023-10-31T08:35:30;2.57;;;1.67;;
12171;SDS011;6149;52.418;13.668;2023-10-31T08:38:05;2.53;;;1.70;;
12171;SDS011;6149;52.418;13.668;2023-10-31T08:40:32;1.80;;;1.70;;
12171;SDS011;6149;52.418;13.668;2023-10-31T08:43:02;1.43;;;1.13;;
12171;SDS011;6149;52.418;13.668;2023-10-31T08:45:32;1.80;;;1.33;;
12171;SDS011;6149;52.418;13.668;2023-10-31T08:47:59;2.60;;;1.80;;
12171;SDS011;6149;52.418;13.668;2023-10-31T08:50:29;1.33;;;1.23;;
12171;SDS011;6149;52.418;13.668;2023-10-31T08:52:58;1.50;;;1.40;;
12171;SDS011;6149;52.418;13.668;2023-10-31T08:55:28;1.90;;;1.20;;
12171;SDS011;6149;52.418;13.668;2023-10-31T08:57:57;2.50;;;1.20;;
12171;SDS011;6149;52.418;13.668;2023-10-31T09:00:23;4.40;;;1.60;;
12171;SDS011;6149;52.418;13.668;2023-10-31T09:02:52;1.67;;;1.30;;
12171;SDS011;6149;52.418;13.668;2023-10-31T09:05:20;1.03;;;0.93;;
12171;SDS011;6149;52.418;13.668;2023-10-31T09:07:47;1.00;;;0.90;;
12171;SDS011;6149;52.418;13.668;2023-10-31T09:10:15;0.80;;;0.80;;
12171;SDS011;6149;52.418;13.668;2023-10-31T09:12:44;5.27;;;0.90;;
12171;SDS011;6149;52.418;13.668;2023-10-31T09:15:11;2.20;;;0.90;;
12171;SDS011;6149;52.418;13.668;2023-10-31T09:17:39;1.80;;;0.90;;
12171;SDS011;6149;52.418;13.668;2023-10-31T09:20:08;1.00;;;0.90;;
12171;SDS011;6149;52.418;13.668;2023-10-31T09:22:37;1.50;;;1.00;;
12171;SDS011;6149;52.418;13.668;2023-10-31T09:25:04;1.40;;;1.10;;
12171;SDS011;6149;52.418;13.668;2023-10-31T09:27:32;1.43;;;1.03;;
12171;SDS011;6149;52.418;13.668;2023-10-31T09:30:05;1.90;;;1.13;;
12171;SDS011;6149;52.418;13.668;2023-10-31T09:32:35;1.53;;;1.13;;
12171;SDS011;6149;52.418;13.668;2023-10-31T09:35:04;1.20;;;1.00;;
12171;SDS011;6149;52.418;13.668;2023-10-31T09:37:38;2.40;;;1.00;;
12171;SDS011;6149;52.418;13.668;2023-10-31T09:40:07;1.13;;;1.00;;
12171;SDS011;6149;52.418;13.668;2023-10-31T09:42:41;1.87;;;1.00;;
12171;SDS011;6149;52.418;13.668;2023-10-31T09:45:11;1.87;;;1.20;;
12171;SDS011;6149;52.418;13.668;2023-10-31T09:47:39;1.63;;;0.90;;
12171;SDS011;6149;52.418;13.668;2023-10-31T09:50:08;1.23;;;1.13;;
12171;SDS011;6149;52.418;13.668;2023-10-31T09:52:46;2.30;;;1.00;;
12171;SDS011;6149;52.418;13.668;2023-10-31T09:55:14;4.00;;;1.30;;
12171;SDS011;6149;52.418;13.668;2023-10-31T09:57:43;1.20;;;1.10;;
12171;SDS011;6149;52.418;13.668;2023-10-31T10:00:13;1.30;;;1.00;;
12171;SDS011;6149;52.418;13.668;2023-10-31T10:02:42;2.60;;;1.13;;
12171;SDS011;6149;52.418;13.668;2023-10-31T10:05:09;3.00;;;1.10;;
12171;SDS011;6149;52.418;13.668;2023-10-31T10:07:38;1.87;;;1.20;;
12171;SDS011;6149;52.418;13.668;2023-10-31T10:10:10;1.47;;;1.10;;
12171;SDS011;6149;52.418;13.668;2023-10-31T10:12:41;1.57;;;1.00;;
12171;SDS011;6149;52.418;13.668;2023-10-31T10:15:09;2.60;;;1.10;;
12171;SDS011;6149;52.418;13.668;2023-10-31T10:17:41;1.33;;;0.93;;
12171;SDS011;6149;52.418;13.668;2023-10-31T10:20:15;2.40;;;1.13;;
12171;SDS011;6149;52.418;13.668;2023-10-31T10:22:42;1.23;;;1.10;;
12171;SDS011;6149;52.418;13.668;2023-10-31T10:25:10;1.23;;;1.10;;
12171;SDS011;6149;52.418;13.668;2023-10-31T10:27:40;1.37;;;1.10;;
12171;SDS011;6149;52.418;13.668;2023-10-31T10:30:08;1.43;;;1.10;;
12171;SDS011;6149;52.418;13.668;2023-10-31T10:32:37;2.67;;;1.30;;
12171;SDS011;6149;52.418;13.668;2023-10-31T10:35:07;2.40;;;1.23;;
12171;SDS011;6149;52.418;13.668;2023-10-31T10:37:36;1.30;;;1.20;;
12171;SDS011;6149;52.418;13.668;2023-10-31T10:40:05;1.70;;;1.30;;
12171;SDS011;6149;52.418;13.668;2023-10-31T10:42:38;1.80;;;1.30;;
12171;SDS011;6149;52.418;13.668;2023-10-31T10:45:13;1.67;;;1.50;;
12171;SDS011;6149;52.418;13.668;2023-10-31T10:47:45;1.90;;;1.30;;
12171;SDS011;6149;52.418;13.668;2023-10-31T10:50:20;1.83;;;1.50;;
12171;SDS011;6149;52.418;13.668;2023-10-31T10:52:58;1.70;;;1.40;;
12171;SDS011;6149;52.418;13.668;2023-10-31T10:55:37;1.67;;;1.57;;
12171;SDS011;6149;52.418;13.668;2023-10-31T10:58:13;1.87;;;1.63;;
12171;SDS011;6149;52.418;13.668;2023-10-31T11:00:49;3.23;;;1.87;;
12171;SDS011;6149;52.418;13.668;2023-10-31T11:03:17;3.43;;;1.80;;
12171;SDS011;6149;52.418;13.668;2023-10-31T11:05:49;2.87;;;1.60;;
12171;SDS011;6149;52.418;13.668;2023-10-31T11:08:18;1.43;;;1.30;;
12171;SDS011;6149;52.418;13.668;2023-10-31T11:10:53;1.70;;;1.60;;
12171;SDS011;6149;52.418;13.668;2023-10-31T11:13:25;1.83;;;1.67;;
12171;SDS011;6149;52.418;13.668;2023-10-31T11:15:55;1.60;;;1.30;;
12171;SDS011;6149;52.418;13.668;2023-10-31T11:18:32;2.80;;;1.57;;
12171;SDS011;6149;52.418;13.668;2023-10-31T11:21:01;2.47;;;1.70;;
12171;SDS011;6149;52.418;13.668;2023-10-31T11:23:35;2.03;;;1.73;;
12171;SDS011;6149;52.418;13.668;2023-10-31T11:26:03;1.40;;;1.30;;
12171;SDS011;6149;52.418;13.668;2023-10-31T11:28:38;2.47;;;1.57;;
12171;SDS011;6149;52.418;13.668;2023-10-31T11:31:04;1.87;;;1.50;;
12171;SDS011;6149;52.418;13.668;2023-10-31T11:33:35;1.33;;;1.23;;
12171;SDS011;6149;52.418;13.668;2023-10-31T11:36:10;2.13;;;1.47;;
12171;SDS011;6149;52.418;13.668;2023-10-31T11:38:38;1.37;;;1.20;;
12171;SDS011;6149;52.418;13.668;2023-10-31T11:41:05;1.60;;;1.40;;
12171;SDS011;6149;52.418;13.668;2023-10-31T11:43:52;2.00;;;1.20;;
12171;SDS011;6149;52.418;13.668;2023-10-31T11:46:21;1.63;;;1.30;;
12171;SDS011;6149;52.418;13.668;2023-10-31T11:48:50;2.57;;;1.33;;
12171;SDS011;6149;52.418;13.668;2023-10-31T11:51:23;1.37;;;1.07;;
12171;SDS011;6149;52.418;13.668;2023-10-31T11:53:49;3.93;;;1.23;;
12171;SDS011;6149;52.418;13.668;2023-10-31T11:56:16;1.87;;;1.10;;
12171;SDS011;6149;52.418;13.668;2023-10-31T11:58:44;2.70;;;1.43;;
12171;SDS011;6149;52.418;13.668;2023-10-31T12:01:22;1.20;;;1.10;;
12171;SDS011;6149;52.418;13.668;2023-10-31T12:03:49;1.80;;;1.17;;
12171;SDS011;6149;52.418;13.668;2023-10-31T12:06:16;1.13;;;0.90;;
12171;SDS011;6149;52.418;13.668;2023-10-31T12:08:48;1.10;;;0.87;;
12171;SDS011;6149;52.418;13.668;2023-10-31T12:11:15;1.20;;;1.00;;
12171;SDS011;6149;52.418;13.668;2023-10-31T12:13:54;1.93;;;1.10;;
12171;SDS011;6149;52.418;13.668;2023-10-31T12:16:22;2.53;;;1.10;;
12171;SDS011;6149;52.418;13.668;2023-10-31T12:18:54;1.27;;;0.90;;
12171;SDS011;6149;52.418;13.668;2023-10-31T12:21:37;1.03;;;0.93;;
12171;SDS011;6149;52.418;13.668;2023-10-31T12:24:11;2.50;;;1.13;;
12171;SDS011;6149;52.418;13.668;2023-10-31T12:26:41;2.57;;;1.20;;
12171;SDS011;6149;52.418;13.668;2023-10-31T12:29:12;1.10;;;1.00;;
12171;SDS011;6149;52.418;13.668;2023-10-31T12:31:42;2.10;;;1.20;;
12171;SDS011;6149;52.418;13.668;2023-10-31T12:34:11;1.00;;;0.90;;
12171;SDS011;6149;52.418;13.668;2023-10-31T12:36:40;1.20;;;1.00;;
12171;SDS011;6149;52.418;13.668;2023-10-31T12:39:15;0.90;;;0.90;;
12171;SDS011;6149;52.418;13.668;2023-10-31T12:41:48;2.57;;;1.00;;
12171;SDS011;6149;52.418;13.668;2023-10-31T12:44:16;1.37;;;1.07;;
12171;SDS011;6149;52.418;13.668;2023-10-31T12:46:49;0.80;;;0.80;;
12171;SDS011;6149;52.418;13.668;2023-10-31T12:49:18;2.77;;;0.93;;
12171;SDS011;6149;52.418;13.668;2023-10-31T12:54:38;1.33;;;0.93;;
12171;SDS011;6149;52.418;13.668;2023-10-31T12:57:06;1.57;;;1.00;;
12171;SDS011;6149;52.418;13.668;2023-10-31T12:59:35;0.87;;;0.67;;
12171;SDS011;6149;52.418;13.668;2023-10-31T13:02:04;0.60;;;0.60;;
12171;SDS011;6149;52.418;13.668;2023-10-31T13:04:33;1.07;;;0.90;;
12171;SDS011;6149;52.418;13.668;2023-10-31T13:07:04;3.93;;;0.70;;
12171;SDS011;6149;52.418;13.668;2023-10-31T13:09:34;0.70;;;0.70;;
12171;SDS011;6149;52.418;13.668;2023-10-31T13:12:09;1.20;;;0.80;;
12171;SDS011;6149;52.418;13.668;2023-10-31T13:14:38;1.67;;;0.70;;
12171;SDS011;6149;52.418;13.668;2023-10-31T13:17:06;0.93;;;0.83;;
12171;SDS011;6149;52.418;13.668;2023-10-31T13:19:36;3.63;;;0.73;;
12171;SDS011;6149;52.418;13.668;2023-10-31T13:22:07;1.33;;;0.80;;
12171;SDS011;6149;52.418;13.668;2023-10-31T13:24:40;0.80;;;0.80;;
12171;SDS011;6149;52.418;13.668;2023-10-31T13:27:08;0.80;;;0.60;;
12171;SDS011;6149;52.418;13.668;2023-10-31T13:29:42;1.50;;;0.73;;
12171;SDS011;6149;52.418;13.668;2023-10-31T13:32:10;2.53;;;0.70;;
12171;SDS011;6149;52.418;13.668;2023-10-31T13:34:38;4.53;;;0.80;;
12171;SDS011;6149;52.418;13.668;2023-10-31T13:37:05;5.07;;;0.80;;
12171;SDS011;6149;52.418;13.668;2023-10-31T13:39:35;2.40;;;0.70;;
12171;SDS011;6149;52.418;13.668;2023-10-31T13:42:04;1.23;;;0.90;;
12171;SDS011;6149;52.418;13.668;2023-10-31T13:44:32;0.90;;;0.60;;
12171;SDS011;6149;52.418;13.668;2023-10-31T13:47:01;1.60;;;0.60;;
12171;SDS011;6149;52.418;13.668;2023-10-31T13:49:28;0.67;;;0.50;;
12171;SDS011;6149;52.418;13.668;2023-10-31T13:51:57;0.90;;;0.60;;
12171;SDS011;6149;52.418;13.668;2023-10-31T13:54:24;0.63;;;0.60;;
12171;SDS011;6149;52.418;13.668;2023-10-31T13:56:53;0.83;;;0.50;;
12171;SDS011;6149;52.418;13.668;2023-10-31T13:59:22;0.50;;;0.50;;
12171;SDS011;6149;52.418;13.668;2023-10-31T14:01:49;1.77;;;0.57;;
12171;SDS011;6149;52.418;13.668;2023-10-31T14:04:15;0.40;;;0.33;;
12171;SDS011;6149;52.418;13.668;2023-10-31T14:06:44;1.90;;;0.50;;
12171;SDS011;6149;52.418;13.668;2023-10-31T14:09:12;1.23;;;0.40;;
12171;SDS011;6149;52.418;13.668;2023-10-31T14:11:41;3.70;;;0.60;;
12171;SDS011;6149;52.418;13.668;2023-10-31T14:14:10;0.53;;;0.50;;
12171;SDS011;6149;52.418;13.668;2023-10-31T14:16:38;1.33;;;0.50;;
12171;SDS011;6149;52.418;13.668;2023-10-31T14:19:06;2.30;;;0.53;;
12171;SDS011;6149;52.418;13.668;2023-10-31T14:21:35;2.10;;;0.50;;
12171;SDS011;6149;52.418;13.668;2023-10-31T14:24:03;1.10;;;0.60;;
12171;SDS011;6149;52.418;13.668;2023-10-31T14:26:33;1.77;;;0.80;;
12171;SDS011;6149;52.418;13.668;2023-10-31T14:29:01;1.40;;;0.70;;
12171;SDS011;6149;52.418;13.668;2023-10-31T14:31:37;1.83;;;1.03;;
12171;SDS011;6149;52.418;13.668;2023-10-31T14:34:08;1.93;;;1.50;;
12171;SDS011;6149;52.418;13.668;2023-10-31T14:36:36;3.10;;;0.90;;
12171;SDS011;6149;52.418;13.668;2023-10-31T14:39:03;1.23;;;0.80;;
12171;SDS011;6149;52.418;13.668;2023-10-31T14:41:31;1.87;;;0.70;;
12171;SDS011;6149;52.418;13.668;2023-10-31T14:44:00;1.37;;;0.73;;
12171;SDS011;6149;52.418;13.668;2023-10-31T14:46:28;1.07;;;0.83;;
12171;SDS011;6149;52.418;13.668;2023-10-31T14:48:59;1.13;;;0.70;;
12171;SDS011;6149;52.418;13.668;2023-10-31T14:51:30;1.00;;;0.80;;
12171;SDS011;6149;52.418;13.668;2023-10-31T14:53:58;2.90;;;0.83;;
12171;SDS011;6149;52.418;13.668;2023-10-31T14:56:25;1.00;;;0.80;;